sensor_id;sensor_type;location;lat;lon;timestamp;pressure;altitude;pressure_sealevel;temperature;humidity
9538;BME280;4807;48.024;11.726;2023-05-23T00:00:33;94657.28;;;13.67;80.76
9538;BME280;4807;48.024;11.726;2023-05-23T00:03:42;94659.50;;;13.70;81.24
9538;BME280;4807;48.024;11.726;2023-05-23T00:06:51;94658.31;;;13.66;81.71
9538;BME280;4807;48.024;11.726;2023-05-23T00:10:00;94667.38;;;13.65;81.57
9538;BME280;4807;48.024;11.726;2023-05-23T00:13:11;94660.38;;;13.64;82.09
9538;BME280;4807;48.024;11.726;2023-05-23T00:16:20;94666.94;;;13.68;81.85
9538;BME280;4807;48.024;11.726;2023-05-23T00:19:29;94667.97;;;13.67;81.52
9538;BME280;4807;48.024;11.726;2023-05-23T00:22:38;94672.00;;;13.58;81.69
9538;BME280;4807;48.024;11.726;2023-05-23T00:25:48;94670.38;;;13.57;82.16
9538;BME280;4807;48.024;11.726;2023-05-23T00:29:01;94670.91;;;13.47;82.44
9538;BME280;4807;48.024;11.726;2023-05-23T00:32:09;94671.81;;;13.71;81.26
9538;BME280;4807;48.024;11.726;2023-05-23T00:35:18;94679.44;;;13.56;82.01
9538;BME280;4807;48.024;11.726;2023-05-23T00:38:26;94675.16;;;13.36;82.68
9538;BME280;4807;48.024;11.726;2023-05-23T00:41:35;94680.03;;;13.40;82.51
9538;BME280;4807;48.024;11.726;2023-05-23T00:44:45;94680.72;;;13.35;82.83
9538;BME280;4807;48.024;11.726;2023-05-23T00:47:54;94676.63;;;13.32;83.73
9538;BME280;4807;48.024;11.726;2023-05-23T00:51:05;94685.25;;;13.53;83.68
9538;BME280;4807;48.024;11.726;2023-05-23T00:54:15;94679.91;;;13.53;83.72
9538;BME280;4807;48.024;11.726;2023-05-23T00:57:26;94681.78;;;13.64;83.59
9538;BME280;4807;48.024;11.726;2023-05-23T01:00:37;94677.00;;;13.84;82.42
9538;BME280;4807;48.024;11.726;2023-05-23T01:03:46;94675.38;;;13.95;82.53
9538;BME280;4807;48.024;11.726;2023-05-23T01:06:55;94685.88;;;13.96;82.43
9538;BME280;4807;48.024;11.726;2023-05-23T01:10:04;94684.97;;;14.02;81.77
9538;BME280;4807;48.024;11.726;2023-05-23T01:13:30;94678.50;;;14.22;80.57
9538;BME280;4807;48.024;11.726;2023-05-23T01:16:52;94686.53;;;14.22;81.15
9538;BME280;4807;48.024;11.726;2023-05-23T01:20:08;94682.16;;;14.39;78.90
9538;BME280;4807;48.024;11.726;2023-05-23T01:23:58;94680.25;;;14.28;79.86
9538;BME280;4807;48.024;11.726;2023-05-23T01:27:23;94685.59;;;14.28;80.25
9538;BME280;4807;48.024;11.726;2023-05-23T01:30:40;94686.25;;;14.53;79.04
9538;BME280;4807;48.024;11.726;2023-05-23T01:33:53;94681.25;;;14.57;78.48
9538;BME280;4807;48.024;11.726;2023-05-23T01:37:08;94686.63;;;14.68;77.85
9538;BME280;4807;48.024;11.726;2023-05-23T01:40:17;94692.69;;;14.64;78.51
9538;BME280;4807;48.024;11.726;2023-05-23T01:43:25;94688.47;;;14.68;78.06
9538;BME280;4807;48.024;11.726;2023-05-23T01:46:37;94695.59;;;14.74;77.92
9538;BME280;4807;48.024;11.726;2023-05-23T01:49:48;94694.69;;;14.80;77.29
9538;BME280;4807;48.024;11.726;2023-05-23T01:52:59;94692.81;;;14.80;77.96
9538;BME280;4807;48.024;11.726;2023-05-23T01:56:08;94697.91;;;14.94;77.47
9538;BME280;4807;48.024;11.726;2023-05-23T01:59:16;94702.25;;;14.95;77.54
9538;BME280;4807;48.024;11.726;2023-05-23T02:02:26;94702.97;;;14.90;77.39
9538;BME280;4807;48.024;11.726;2023-05-23T02:05:36;94697.00;;;15.00;76.99
9538;BME280;4807;48.024;11.726;2023-05-23T02:08:44;94709.94;;;15.03;77.11
9538;BME280;4807;48.024;11.726;2023-05-23T02:11:52;94713.88;;;15.00;76.73
9538;BME280;4807;48.024;11.726;2023-05-23T02:15:01;94713.44;;;14.92;78.03
9538;BME280;4807;48.024;11.726;2023-05-23T02:18:11;94711.47;;;14.99;77.70
9538;BME280;4807;48.024;11.726;2023-05-23T02:21:22;94713.09;;;15.00;77.23
9538;BME280;4807;48.024;11.726;2023-05-23T02:24:31;94723.81;;;15.00;77.16
9538;BME280;4807;48.024;11.726;2023-05-23T02:27:39;94732.44;;;15.02;77.17
9538;BME280;4807;48.024;11.726;2023-05-23T02:30:47;94720.56;;;14.98;77.55
9538;BME280;4807;48.024;11.726;2023-05-23T02:33:57;94723.34;;;15.03;77.11
9538;BME280;4807;48.024;11.726;2023-05-23T02:37:06;94729.63;;;14.97;77.10
9538;BME280;4807;48.024;11.726;2023-05-23T02:40:16;94732.22;;;14.92;78.04
9538;BME280;4807;48.024;11.726;2023-05-23T02:43:26;94725.78;;;15.04;77.46
9538;BME280;4807;48.024;11.726;2023-05-23T02:46:34;94723.69;;;14.95;77.71
9538;BME280;4807;48.024;11.726;2023-05-23T02:49:45;94730.47;;;14.97;77.78
9538;BME280;4807;48.024;11.726;2023-05-23T02:52:54;94740.25;;;14.92;77.58
9538;BME280;4807;48.024;11.726;2023-05-23T02:56:02;94723.44;;;14.84;78.59
9538;BME280;4807;48.024;11.726;2023-05-23T02:59:10;94740.13;;;14.86;78.42
9538;BME280;4807;48.024;11.726;2023-05-23T03:02:19;94737.66;;;14.73;79.10
9538;BME280;4807;48.024;11.726;2023-05-23T03:05:30;94737.31;;;14.58;79.68
9538;BME280;4807;48.024;11.726;2023-05-23T03:08:38;94733.09;;;14.62;79.27
9538;BME280;4807;48.024;11.726;2023-05-23T03:11:47;94720.53;;;14.51;80.29
9538;BME280;4807;48.024;11.726;2023-05-23T03:14:55;94723.75;;;14.53;80.15
9538;BME280;4807;48.024;11.726;2023-05-23T03:18:04;94718.28;;;14.48;80.09
9538;BME280;4807;48.024;11.726;2023-05-23T03:21:14;94716.78;;;14.52;80.35
9538;BME280;4807;48.024;11.726;2023-05-23T03:24:23;94733.53;;;14.47;80.56
9538;BME280;4807;48.024;11.726;2023-05-23T03:27:32;94725.16;;;14.56;79.50
9538;BME280;4807;48.024;11.726;2023-05-23T03:30:40;94723.66;;;14.60;79.62
9538;BME280;4807;48.024;11.726;2023-05-23T03:33:49;94722.16;;;14.64;79.51
9538;BME280;4807;48.024;11.726;2023-05-23T03:37:01;94735.78;;;14.62;79.38
9538;BME280;4807;48.024;11.726;2023-05-23T03:40:09;94727.47;;;14.52;80.17
9538;BME280;4807;48.024;11.726;2023-05-23T03:43:19;94732.41;;;14.55;79.56
9538;BME280;4807;48.024;11.726;2023-05-23T03:46:28;94740.44;;;14.55;80.04
9538;BME280;4807;48.024;11.726;2023-05-23T03:49:37;94746.28;;;14.64;79.73
9538;BME280;4807;48.024;11.726;2023-05-23T03:52:46;94744.19;;;14.77;79.35
9538;BME280;4807;48.024;11.726;2023-05-23T03:55:55;94746.66;;;14.91;78.75
9538;BME280;4807;48.024;11.726;2023-05-23T03:59:04;94753.66;;;14.92;78.40
9538;BME280;4807;48.024;11.726;2023-05-23T04:02:13;94748.50;;;15.02;78.52
9538;BME280;4807;48.024;11.726;2023-05-23T04:05:22;94746.41;;;15.04;78.42
9538;BME280;4807;48.024;11.726;2023-05-23T04:08:32;94750.63;;;15.11;78.28
9538;BME280;4807;48.024;11.726;2023-05-23T04:11:41;94747.47;;;15.14;77.50
9538;BME280;4807;48.024;11.726;2023-05-23T04:14:50;94755.28;;;15.16;77.83
9538;BME280;4807;48.024;11.726;2023-05-23T04:17:58;94764.69;;;15.42;76.84
9538;BME280;4807;48.024;11.726;2023-05-23T04:21:07;94763.53;;;15.49;77.12
9538;BME280;4807;48.024;11.726;2023-05-23T04:24:23;94767.06;;;15.61;75.93
9538;BME280;4807;48.024;11.726;2023-05-23T04:27:33;94767.28;;;15.72;75.65
9538;BME280;4807;48.024;11.726;2023-05-23T04:30:43;94770.97;;;15.82;74.87
9538;BME280;4807;48.024;11.726;2023-05-23T04:33:53;94775.28;;;15.83;74.98
9538;BME280;4807;48.024;11.726;2023-05-23T04:37:02;94786.91;;;16.00;74.80
9538;BME280;4807;48.024;11.726;2023-05-23T04:40:13;94788.63;;;16.07;74.65
9538;BME280;4807;48.024;11.726;2023-05-23T04:43:36;94788.41;;;16.08;74.43
9538;BME280;4807;48.024;11.726;2023-05-23T04:46:56;94794.41;;;16.27;73.63
9538;BME280;4807;48.024;11.726;2023-05-23T04:50:23;94795.00;;;16.29;73.42
9538;BME280;4807;48.024;11.726;2023-05-23T04:53:32;94799.19;;;16.36;73.84
9538;BME280;4807;48.024;11.726;2023-05-23T04:56:44;94797.81;;;16.22;74.39
9538;BME280;4807;48.024;11.726;2023-05-23T04:59:54;94797.19;;;16.32;73.54
9538;BME280;4807;48.024;11.726;2023-05-23T05:03:05;94794.66;;;16.25;74.01
9538;BME280;4807;48.024;11.726;2023-05-23T05:06:18;94802.25;;;16.28;73.87
9538;BME280;4807;48.024;11.726;2023-05-23T05:09:28;94791.63;;;16.50;73.74
9538;BME280;4807;48.024;11.726;2023-05-23T05:12:38;94784.91;;;16.64;73.15
9538;BME280;4807;48.024;11.726;2023-05-23T05:15:47;94789.47;;;16.64;73.54
9538;BME280;4807;48.024;11.726;2023-05-23T05:18:56;94780.34;;;16.65;73.20
9538;BME280;4807;48.024;11.726;2023-05-23T05:22:05;94785.56;;;16.71;72.81
9538;BME280;4807;48.024;11.726;2023-05-23T05:25:13;94780.63;;;16.80;72.45
9538;BME280;4807;48.024;11.726;2023-05-23T05:28:23;94788.69;;;16.80;72.79
9538;BME280;4807;48.024;11.726;2023-05-23T05:31:32;94787.63;;;16.81;73.18
9538;BME280;4807;48.024;11.726;2023-05-23T05:34:42;94789.69;;;16.91;73.00
9538;BME280;4807;48.024;11.726;2023-05-23T05:37:53;94784.47;;;17.01;73.03
9538;BME280;4807;48.024;11.726;2023-05-23T05:41:04;94787.06;;;17.12;72.93
9538;BME280;4807;48.024;11.726;2023-05-23T05:44:19;94789.97;;;17.28;72.10
9538;BME280;4807;48.024;11.726;2023-05-23T05:47:28;94787.72;;;17.20;72.79
9538;BME280;4807;48.024;11.726;2023-05-23T05:50:37;94780.84;;;17.29;72.36
9538;BME280;4807;48.024;11.726;2023-05-23T05:53:46;94781.00;;;17.55;71.54
9538;BME280;4807;48.024;11.726;2023-05-23T05:56:56;94778.34;;;17.77;70.73
9538;BME280;4807;48.024;11.726;2023-05-23T06:00:09;94779.50;;;17.81;71.00
9538;BME280;4807;48.024;11.726;2023-05-23T06:03:31;94773.59;;;18.28;69.68
9538;BME280;4807;48.024;11.726;2023-05-23T06:06:40;94773.13;;;18.90;67.47
9538;BME280;4807;48.024;11.726;2023-05-23T06:09:49;94783.53;;;19.77;64.70
9538;BME280;4807;48.024;11.726;2023-05-23T06:12:58;94781.03;;;20.28;62.36
9538;BME280;4807;48.024;11.726;2023-05-23T06:16:08;94778.19;;;20.49;60.40
9538;BME280;4807;48.024;11.726;2023-05-23T06:19:16;94786.09;;;20.86;59.90
9538;BME280;4807;48.024;11.726;2023-05-23T06:22:25;94793.34;;;20.55;61.25
9538;BME280;4807;48.024;11.726;2023-05-23T06:25:33;94802.19;;;20.36;62.13
9538;BME280;4807;48.024;11.726;2023-05-23T06:28:42;94795.66;;;20.27;61.84
9538;BME280;4807;48.024;11.726;2023-05-23T06:31:51;94801.66;;;20.34;61.76
9538;BME280;4807;48.024;11.726;2023-05-23T06:34:59;94806.16;;;19.66;62.75
9538;BME280;4807;48.024;11.726;2023-05-23T06:38:08;94802.94;;;19.74;63.12
9538;BME280;4807;48.024;11.726;2023-05-23T06:41:16;94808.69;;;19.46;63.45
9538;BME280;4807;48.024;11.726;2023-05-23T06:44:25;94804.28;;;19.34;65.53
9538;BME280;4807;48.024;11.726;2023-05-23T06:47:35;94801.31;;;21.38;59.21
9538;BME280;4807;48.024;11.726;2023-05-23T06:50:43;94802.44;;;23.01;54.91
9538;BME280;4807;48.024;11.726;2023-05-23T06:53:52;94799.75;;;23.30;54.16
9538;BME280;4807;48.024;11.726;2023-05-23T06:57:02;94797.81;;;23.02;53.56
9538;BME280;4807;48.024;11.726;2023-05-23T07:00:12;94805.88;;;23.46;52.61
9538;BME280;4807;48.024;11.726;2023-05-23T07:03:36;94796.94;;;24.51;49.73
9538;BME280;4807;48.024;11.726;2023-05-23T07:06:48;94803.84;;;25.42;47.49
9538;BME280;4807;48.024;11.726;2023-05-23T07:09:59;94801.41;;;24.84;47.91
9538;BME280;4807;48.024;11.726;2023-05-23T07:13:08;94800.16;;;25.52;48.32
9538;BME280;4807;48.024;11.726;2023-05-23T07:16:17;94806.66;;;23.56;51.92
9538;BME280;4807;48.024;11.726;2023-05-23T07:19:40;94810.78;;;21.61;56.94
9538;BME280;4807;48.024;11.726;2023-05-23T07:22:48;94805.09;;;21.47;58.50
9538;BME280;4807;48.024;11.726;2023-05-23T07:25:58;94817.81;;;21.62;59.03
9538;BME280;4807;48.024;11.726;2023-05-23T07:29:21;94805.16;;;23.01;54.93
9538;BME280;4807;48.024;11.726;2023-05-23T07:32:31;94804.09;;;23.94;50.80
9538;BME280;4807;48.024;11.726;2023-05-23T07:35:43;94806.75;;;24.94;49.30
9538;BME280;4807;48.024;11.726;2023-05-23T07:38:52;94806.47;;;23.43;52.12
9538;BME280;4807;48.024;11.726;2023-05-23T07:42:00;94807.66;;;22.88;54.10
9538;BME280;4807;48.024;11.726;2023-05-23T07:45:10;94808.50;;;22.14;56.44
9538;BME280;4807;48.024;11.726;2023-05-23T07:48:21;94807.25;;;20.22;61.86
9538;BME280;4807;48.024;11.726;2023-05-23T07:51:31;94823.50;;;19.43;65.46
9538;BME280;4807;48.024;11.726;2023-05-23T07:54:39;94813.84;;;19.15;65.62
9538;BME280;4807;48.024;11.726;2023-05-23T07:57:49;94818.00;;;18.69;68.55
9538;BME280;4807;48.024;11.726;2023-05-23T08:00:59;94823.19;;;19.02;67.90
9538;BME280;4807;48.024;11.726;2023-05-23T08:04:32;94828.56;;;19.02;67.25
9538;BME280;4807;48.024;11.726;2023-05-23T08:07:44;94822.97;;;19.09;67.61
9538;BME280;4807;48.024;11.726;2023-05-23T08:10:53;94822.16;;;19.09;67.23
9538;BME280;4807;48.024;11.726;2023-05-23T08:14:08;94834.56;;;18.83;68.86
9538;BME280;4807;48.024;11.726;2023-05-23T08:17:16;94833.06;;;19.24;67.38
9538;BME280;4807;48.024;11.726;2023-05-23T08:20:25;94839.53;;;19.92;66.72
9538;BME280;4807;48.024;11.726;2023-05-23T08:23:42;94839.22;;;19.83;65.24
9538;BME280;4807;48.024;11.726;2023-05-23T08:26:50;94840.19;;;20.09;64.48
9538;BME280;4807;48.024;11.726;2023-05-23T08:30:00;94846.00;;;20.38;63.46
9538;BME280;4807;48.024;11.726;2023-05-23T08:33:10;94841.44;;;19.96;64.30
9538;BME280;4807;48.024;11.726;2023-05-23T08:36:21;94847.91;;;19.95;65.07
9538;BME280;4807;48.024;11.726;2023-05-23T08:39:31;94839.66;;;19.06;68.65
9538;BME280;4807;48.024;11.726;2023-05-23T08:43:03;94843.84;;;18.92;68.11
9538;BME280;4807;48.024;11.726;2023-05-23T08:46:13;94849.59;;;19.59;67.15
9538;BME280;4807;48.024;11.726;2023-05-23T08:49:23;94845.09;;;19.75;65.59
9538;BME280;4807;48.024;11.726;2023-05-23T08:52:32;94850.66;;;19.58;66.46
9538;BME280;4807;48.024;11.726;2023-05-23T08:55:45;94850.28;;;19.81;65.10
9538;BME280;4807;48.024;11.726;2023-05-23T08:58:54;94844.38;;;20.37;63.33
9538;BME280;4807;48.024;11.726;2023-05-23T09:02:09;94850.03;;;19.88;65.75
9538;BME280;4807;48.024;11.726;2023-05-23T09:05:19;94856.41;;;20.71;63.86
9538;BME280;4807;48.024;11.726;2023-05-23T09:08:29;94858.72;;;19.95;64.32
9538;BME280;4807;48.024;11.726;2023-05-23T09:11:41;94849.63;;;19.64;63.78
9538;BME280;4807;48.024;11.726;2023-05-23T09:14:53;94855.91;;;19.11;67.05
9538;BME280;4807;48.024;11.726;2023-05-23T09:18:04;94860.13;;;19.02;67.45
9538;BME280;4807;48.024;11.726;2023-05-23T09:21:13;94860.41;;;19.32;66.20
9538;BME280;4807;48.024;11.726;2023-05-23T09:24:40;94863.44;;;19.41;66.79
9538;BME280;4807;48.024;11.726;2023-05-23T09:27:51;94856.63;;;19.33;66.80
9538;BME280;4807;48.024;11.726;2023-05-23T09:31:05;94854.41;;;19.25;67.14
9538;BME280;4807;48.024;11.726;2023-05-23T09:34:14;94853.34;;;19.58;66.25
9538;BME280;4807;48.024;11.726;2023-05-23T09:37:29;94851.22;;;19.60;66.68
9538;BME280;4807;48.024;11.726;2023-05-23T09:40:44;94858.66;;;21.05;61.36
9538;BME280;4807;48.024;11.726;2023-05-23T09:43:54;94862.16;;;21.00;61.00
9538;BME280;4807;48.024;11.726;2023-05-23T09:47:05;94854.94;;;21.61;62.14
9538;BME280;4807;48.024;11.726;2023-05-23T09:50:14;94864.13;;;22.06;60.75
9538;BME280;4807;48.024;11.726;2023-05-23T09:53:24;94866.53;;;21.11;61.42
9538;BME280;4807;48.024;11.726;2023-05-23T09:56:36;94869.03;;;19.98;65.28
9538;BME280;4807;48.024;11.726;2023-05-23T09:59:52;94862.03;;;19.60;65.41
9538;BME280;4807;48.024;11.726;2023-05-23T10:03:09;94859.00;;;20.41;63.05
9538;BME280;4807;48.024;11.726;2023-05-23T10:06:25;94850.94;;;20.04;62.60
9538;BME280;4807;48.024;11.726;2023-05-23T10:09:38;94856.97;;;20.78;62.24
9538;BME280;4807;48.024;11.726;2023-05-23T10:12:50;94854.03;;;20.90;60.78
9538;BME280;4807;48.024;11.726;2023-05-23T10:16:13;94845.38;;;20.88;61.47
9538;BME280;4807;48.024;11.726;2023-05-23T10:19:24;94842.03;;;20.03;64.07
9538;BME280;4807;48.024;11.726;2023-05-23T10:22:35;94841.03;;;19.40;64.62
9538;BME280;4807;48.024;11.726;2023-05-23T10:25:45;94835.88;;;19.39;64.77
9538;BME280;4807;48.024;11.726;2023-05-23T10:28:54;94837.81;;;19.43;65.25
9538;BME280;4807;48.024;11.726;2023-05-23T10:32:07;94836.25;;;19.48;65.57
9538;BME280;4807;48.024;11.726;2023-05-23T10:35:24;94839.97;;;19.73;66.02
9538;BME280;4807;48.024;11.726;2023-05-23T10:38:45;94843.13;;;20.02;62.99
9538;BME280;4807;48.024;11.726;2023-05-23T10:42:02;94850.84;;;19.84;62.89
9538;BME280;4807;48.024;11.726;2023-05-23T10:45:18;94857.59;;;19.49;64.36
9538;BME280;4807;48.024;11.726;2023-05-23T10:48:34;94853.38;;;19.31;63.97
9538;BME280;4807;48.024;11.726;2023-05-23T10:51:47;94858.38;;;19.44;64.93
9538;BME280;4807;48.024;11.726;2023-05-23T10:54:57;94853.97;;;19.06;66.72
9538;BME280;4807;48.024;11.726;2023-05-23T10:58:11;94852.50;;;19.21;65.89
9538;BME280;4807;48.024;11.726;2023-05-23T11:01:23;94864.75;;;19.65;65.11
9538;BME280;4807;48.024;11.726;2023-05-23T11:04:32;94860.66;;;19.31;64.96
9538;BME280;4807;48.024;11.726;2023-05-23T11:07:42;94843.59;;;19.52;63.80
9538;BME280;4807;48.024;11.726;2023-05-23T11:10:55;94843.66;;;19.62;65.21
9538;BME280;4807;48.024;11.726;2023-05-23T11:14:05;94845.22;;;19.53;65.65
9538;BME280;4807;48.024;11.726;2023-05-23T11:17:15;94853.06;;;19.55;65.79
9538;BME280;4807;48.024;11.726;2023-05-23T11:20:26;94845.50;;;19.57;65.93
9538;BME280;4807;48.024;11.726;2023-05-23T11:23:39;94852.88;;;19.34;66.02
9538;BME280;4807;48.024;11.726;2023-05-23T11:26:53;94846.91;;;20.06;65.42
9538;BME280;4807;48.024;11.726;2023-05-23T11:30:09;94833.06;;;20.45;61.77
9538;BME280;4807;48.024;11.726;2023-05-23T11:33:19;94835.75;;;20.35;63.94
9538;BME280;4807;48.024;11.726;2023-05-23T11:36:29;94829.31;;;20.04;63.03
9538;BME280;4807;48.024;11.726;2023-05-23T11:39:38;94825.22;;;19.96;62.79
9538;BME280;4807;48.024;11.726;2023-05-23T11:42:47;94823.91;;;20.04;62.30
9538;BME280;4807;48.024;11.726;2023-05-23T11:45:55;94819.75;;;19.81;62.88
9538;BME280;4807;48.024;11.726;2023-05-23T11:49:10;94835.28;;;20.01;61.50
9538;BME280;4807;48.024;11.726;2023-05-23T11:52:20;94830.94;;;20.62;60.38
9538;BME280;4807;48.024;11.726;2023-05-23T11:55:29;94828.53;;;20.76;58.98
9538;BME280;4807;48.024;11.726;2023-05-23T11:58:38;94827.03;;;21.61;58.89
9538;BME280;4807;48.024;11.726;2023-05-23T12:01:47;94836.28;;;22.55;55.62
9538;BME280;4807;48.024;11.726;2023-05-23T12:04:56;94832.72;;;21.44;56.91
9538;BME280;4807;48.024;11.726;2023-05-23T12:08:06;94829.97;;;20.99;56.40
9538;BME280;4807;48.024;11.726;2023-05-23T12:11:14;94837.19;;;20.63;56.46
9538;BME280;4807;48.024;11.726;2023-05-23T12:14:22;94828.81;;;20.59;56.84
9538;BME280;4807;48.024;11.726;2023-05-23T12:17:32;94830.72;;;20.79;57.59
9538;BME280;4807;48.024;11.726;2023-05-23T12:20:40;94827.19;;;20.68;56.59
9538;BME280;4807;48.024;11.726;2023-05-23T12:23:51;94839.94;;;20.83;56.46
9538;BME280;4807;48.024;11.726;2023-05-23T12:27:01;94828.88;;;20.89;55.09
9538;BME280;4807;48.024;11.726;2023-05-23T12:30:13;94823.00;;;21.48;55.13
9538;BME280;4807;48.024;11.726;2023-05-23T12:33:22;94816.47;;;21.69;54.60
9538;BME280;4807;48.024;11.726;2023-05-23T12:36:30;94808.34;;;21.64;54.32
9538;BME280;4807;48.024;11.726;2023-05-23T12:39:46;94810.97;;;22.10;53.62
9538;BME280;4807;48.024;11.726;2023-05-23T12:42:56;94812.19;;;22.48;51.82
9538;BME280;4807;48.024;11.726;2023-05-23T12:46:05;94810.34;;;22.33;51.15
9538;BME280;4807;48.024;11.726;2023-05-23T12:49:14;94820.22;;;21.99;51.60
9538;BME280;4807;48.024;11.726;2023-05-23T12:52:23;94814.56;;;21.19;53.76
9538;BME280;4807;48.024;11.726;2023-05-23T12:55:32;94827.78;;;21.01;55.82
9538;BME280;4807;48.024;11.726;2023-05-23T12:58:41;94811.53;;;20.80;56.44
9538;BME280;4807;48.024;11.726;2023-05-23T13:01:50;94819.56;;;20.55;58.59
9538;BME280;4807;48.024;11.726;2023-05-23T13:04:58;94815.81;;;20.71;56.86
9538;BME280;4807;48.024;11.726;2023-05-23T13:08:07;94816.22;;;21.20;54.09
9538;BME280;4807;48.024;11.726;2023-05-23T13:11:17;94822.44;;;21.72;54.28
9538;BME280;4807;48.024;11.726;2023-05-23T13:14:25;94818.63;;;21.73;52.67
9538;BME280;4807;48.024;11.726;2023-05-23T13:17:34;94818.09;;;21.55;54.65
9538;BME280;4807;48.024;11.726;2023-05-23T13:20:42;94823.78;;;21.44;56.51
9538;BME280;4807;48.024;11.726;2023-05-23T13:23:51;94824.06;;;21.47;56.22
9538;BME280;4807;48.024;11.726;2023-05-23T13:27:01;94827.50;;;20.82;57.84
9538;BME280;4807;48.024;11.726;2023-05-23T13:30:10;94825.78;;;20.55;58.61
9538;BME280;4807;48.024;11.726;2023-05-23T13:33:19;94834.53;;;20.20;60.66
9538;BME280;4807;48.024;11.726;2023-05-23T13:36:28;94837.56;;;20.29;60.71
9538;BME280;4807;48.024;11.726;2023-05-23T13:39:36;94836.03;;;19.91;64.77
9538;BME280;4807;48.024;11.726;2023-05-23T13:42:48;94823.56;;;19.16;67.27
9538;BME280;4807;48.024;11.726;2023-05-23T13:45:57;94838.88;;;17.91;69.96
9538;BME280;4807;48.024;11.726;2023-05-23T13:49:08;94838.69;;;17.43;72.30
9538;BME280;4807;48.024;11.726;2023-05-23T13:52:16;94838.34;;;17.06;74.06
9538;BME280;4807;48.024;11.726;2023-05-23T13:55:25;94848.28;;;17.39;72.07
9538;BME280;4807;48.024;11.726;2023-05-23T13:58:38;94840.97;;;17.34;72.13
9538;BME280;4807;48.024;11.726;2023-05-23T14:01:46;94831.06;;;16.90;74.01
9538;BME280;4807;48.024;11.726;2023-05-23T14:04:55;94837.72;;;16.70;75.75
9538;BME280;4807;48.024;11.726;2023-05-23T14:08:04;94829.13;;;16.85;74.60
9538;BME280;4807;48.024;11.726;2023-05-23T14:11:12;94846.75;;;17.09;73.58
9538;BME280;4807;48.024;11.726;2023-05-23T14:14:22;94859.81;;;17.34;72.20
9538;BME280;4807;48.024;11.726;2023-05-23T14:17:32;94860.34;;;17.20;72.19
9538;BME280;4807;48.024;11.726;2023-05-23T14:20:41;94850.00;;;17.11;73.37
9538;BME280;4807;48.024;11.726;2023-05-23T14:23:49;94849.97;;;16.95;75.18
9538;BME280;4807;48.024;11.726;2023-05-23T14:26:58;94848.28;;;17.05;75.39
9538;BME280;4807;48.024;11.726;2023-05-23T14:30:10;94844.59;;;16.95;74.39
9538;BME280;4807;48.024;11.726;2023-05-23T14:33:18;94850.16;;;17.22;74.04
9538;BME280;4807;48.024;11.726;2023-05-23T14:36:27;94853.34;;;17.35;73.90
9538;BME280;4807;48.024;11.726;2023-05-23T14:39:35;94834.47;;;17.85;72.07
9538;BME280;4807;48.024;11.726;2023-05-23T14:42:44;94835.75;;;18.43;70.91
9538;BME280;4807;48.024;11.726;2023-05-23T14:45:53;94839.16;;;19.09;67.22
9538;BME280;4807;48.024;11.726;2023-05-23T14:49:02;94841.25;;;19.34;66.93
9538;BME280;4807;48.024;11.726;2023-05-23T14:52:11;94848.56;;;20.12;64.92
9538;BME280;4807;48.024;11.726;2023-05-23T14:55:20;94851.88;;;20.30;61.24
9538;BME280;4807;48.024;11.726;2023-05-23T14:58:28;94850.34;;;20.34;61.51
9538;BME280;4807;48.024;11.726;2023-05-23T15:01:38;94842.28;;;20.49;61.36
9538;BME280;4807;48.024;11.726;2023-05-23T15:04:48;94842.56;;;20.05;62.19
9538;BME280;4807;48.024;11.726;2023-05-23T15:07:56;94850.72;;;20.10;62.98
9538;BME280;4807;48.024;11.726;2023-05-23T15:11:05;94848.06;;;19.73;64.04
9538;BME280;4807;48.024;11.726;2023-05-23T15:14:16;94853.59;;;18.98;68.11
9538;BME280;4807;48.024;11.726;2023-05-23T15:17:26;94860.91;;;18.71;69.33
9538;BME280;4807;48.024;11.726;2023-05-23T15:20:35;94860.94;;;18.54;70.10
9538;BME280;4807;48.024;11.726;2023-05-23T15:23:47;94867.38;;;18.09;72.66
9538;BME280;4807;48.024;11.726;2023-05-23T15:26:56;94867.22;;;18.16;72.97
9538;BME280;4807;48.024;11.726;2023-05-23T15:30:24;94874.53;;;17.99;73.39
9538;BME280;4807;48.024;11.726;2023-05-23T15:33:34;94865.50;;;18.10;72.76
9538;BME280;4807;48.024;11.726;2023-05-23T15:36:43;94857.47;;;17.93;73.63
9538;BME280;4807;48.024;11.726;2023-05-23T15:39:52;94857.97;;;17.90;73.37
9538;BME280;4807;48.024;11.726;2023-05-23T15:43:01;94859.72;;;17.46;74.73
9538;BME280;4807;48.024;11.726;2023-05-23T15:46:10;94872.75;;;17.54;74.75
9538;BME280;4807;48.024;11.726;2023-05-23T15:49:20;94873.72;;;17.14;76.69
9538;BME280;4807;48.024;11.726;2023-05-23T15:52:33;94876.59;;;17.25;77.66
9538;BME280;4807;48.024;11.726;2023-05-23T15:55:41;94877.00;;;17.16;78.65
9538;BME280;4807;48.024;11.726;2023-05-23T15:58:50;94867.63;;;17.02;80.15
9538;BME280;4807;48.024;11.726;2023-05-23T16:01:59;94868.94;;;17.16;78.38
9538;BME280;4807;48.024;11.726;2023-05-23T16:05:13;94876.09;;;17.28;77.60
9538;BME280;4807;48.024;11.726;2023-05-23T16:08:21;94879.19;;;17.36;77.96
9538;BME280;4807;48.024;11.726;2023-05-23T16:11:30;94884.28;;;17.33;78.29
9538;BME280;4807;48.024;11.726;2023-05-23T16:14:38;94890.13;;;17.46;77.38
9538;BME280;4807;48.024;11.726;2023-05-23T16:17:47;94894.13;;;17.61;77.45
9538;BME280;4807;48.024;11.726;2023-05-23T16:20:56;94898.41;;;17.73;76.69
9538;BME280;4807;48.024;11.726;2023-05-23T16:24:05;94898.41;;;17.73;76.81
9538;BME280;4807;48.024;11.726;2023-05-23T16:27:13;94898.66;;;17.72;76.91
9538;BME280;4807;48.024;11.726;2023-05-23T16:30:22;94903.19;;;17.54;77.20
9538;BME280;4807;48.024;11.726;2023-05-23T16:33:33;94901.75;;;17.80;76.60
9538;BME280;4807;48.024;11.726;2023-05-23T16:36:44;94902.38;;;17.87;76.58
9538;BME280;4807;48.024;11.726;2023-05-23T16:39:53;94894.88;;;17.89;76.22
9538;BME280;4807;48.024;11.726;2023-05-23T16:43:02;94888.97;;;17.92;76.14
9538;BME280;4807;48.024;11.726;2023-05-23T16:46:11;94884.47;;;18.37;75.18
9538;BME280;4807;48.024;11.726;2023-05-23T16:49:20;94875.75;;;19.96;70.83
9538;BME280;4807;48.024;11.726;2023-05-23T16:52:31;94879.91;;;20.08;66.59
9538;BME280;4807;48.024;11.726;2023-05-23T16:55:40;94881.47;;;19.99;67.53
9538;BME280;4807;48.024;11.726;2023-05-23T16:58:49;94880.06;;;19.55;69.06
9538;BME280;4807;48.024;11.726;2023-05-23T17:02:01;94884.09;;;18.72;71.78